createdAt,value
2022-10-25T00:00:30.754Z,7.03
2022-10-25T00:02:58.026Z,6.53
2022-10-25T00:05:25.336Z,6.05
2022-10-25T00:07:52.597Z,6.28
2022-10-25T00:10:22.261Z,6.20
2022-10-25T00:12:52.795Z,6.70
2022-10-25T00:15:20.230Z,6.53
2022-10-25T00:17:47.934Z,6.40
2022-10-25T00:20:15.312Z,6.72
2022-10-25T00:22:42.702Z,7.03
2022-10-25T00:25:10.599Z,6.80
2022-10-25T00:27:38.120Z,6.57
2022-10-25T00:30:06.436Z,7.05
2022-10-25T00:32:34.532Z,7.25
2022-10-25T00:35:01.787Z,7.18
2022-10-25T00:37:29.191Z,7.50
2022-10-25T00:39:56.477Z,6.90
2022-10-25T00:42:25.503Z,7.20
2022-10-25T00:44:52.820Z,7.72
2022-10-25T00:47:20.035Z,7.93
2022-10-25T00:49:54.069Z,8.18
2022-10-25T00:52:21.484Z,8.27
2022-10-25T00:54:51.234Z,8.27
2022-10-25T00:57:20.903Z,8.13
2022-10-25T00:59:48.486Z,9.05
2022-10-25T01:02:16.080Z,9.02
2022-10-25T01:04:43.799Z,9.48
2022-10-25T01:07:11.087Z,10.35
2022-10-25T01:09:39.154Z,10.20
2022-10-25T01:12:06.550Z,10.32
2022-10-25T01:14:36.444Z,10.32
2022-10-25T01:17:15.712Z,11.65
2022-10-25T01:19:55.189Z,11.73
2022-10-25T01:22:34.775Z,11.50
2022-10-25T01:25:11.072Z,12.25
2022-10-25T01:27:38.323Z,12.45
2022-10-25T01:30:11.505Z,12.32
2022-10-25T01:32:38.785Z,14.50
2022-10-25T01:35:06.053Z,13.68
2022-10-25T01:37:33.287Z,14.02
2022-10-25T01:40:06.878Z,14.23
2022-10-25T01:42:39.578Z,16.00
2022-10-25T01:45:11.842Z,15.23
2022-10-25T01:47:44.801Z,17.17
2022-10-25T01:50:15.051Z,15.68
2022-10-25T01:52:42.513Z,17.63
2022-10-25T01:55:11.822Z,16.95
2022-10-25T01:57:58.767Z,17.38
2022-10-25T02:00:28.831Z,17.45
2022-10-25T02:02:56.156Z,18.10
2022-10-25T02:05:26.730Z,18.48
2022-10-25T02:07:53.945Z,19.25
2022-10-25T02:10:25.919Z,18.25
2022-10-25T02:13:05.344Z,17.80
2022-10-25T02:15:38.852Z,18.45
2022-10-25T02:18:08.518Z,17.77
2022-10-25T02:20:36.769Z,17.67
2022-10-25T02:23:06.052Z,17.48
2022-10-25T02:25:34.322Z,17.60
2022-10-25T02:28:02.671Z,16.80
2022-10-25T02:30:30.620Z,16.77
2022-10-25T02:32:57.923Z,17.25
2022-10-25T02:35:25.219Z,17.65
2022-10-25T02:37:52.437Z,17.58
2022-10-25T02:40:20.192Z,16.95
2022-10-25T02:42:47.455Z,17.75
2022-10-25T02:45:14.733Z,18.48
2022-10-25T02:47:41.965Z,17.58
2022-10-25T02:50:09.404Z,18.08
2022-10-25T02:52:36.737Z,17.90
2022-10-25T02:55:04.159Z,19.50
2022-10-25T02:57:35.237Z,18.60
2022-10-25T03:00:02.634Z,19.45
2022-10-25T03:02:29.974Z,19.75
2022-10-25T03:04:57.247Z,19.27
2022-10-25T03:07:24.500Z,18.75
2022-10-25T03:09:51.815Z,19.33
2022-10-25T03:12:19.083Z,19.70
2022-10-25T03:14:46.331Z,19.98
2022-10-25T03:17:13.562Z,20.77
2022-10-25T03:19:40.779Z,21.58
2022-10-25T03:22:08.011Z,22.15
2022-10-25T03:24:35.306Z,21.73
2022-10-25T03:27:02.556Z,20.80
2022-10-25T03:29:29.836Z,21.73
2022-10-25T03:31:57.128Z,22.83
2022-10-25T03:34:24.404Z,21.42
2022-10-25T03:36:52.441Z,22.48
2022-10-25T03:39:19.751Z,22.73
2022-10-25T03:41:47.014Z,22.05
2022-10-25T03:44:14.250Z,23.15
2022-10-25T03:46:41.526Z,22.15
2022-10-25T03:49:08.934Z,22.70
2022-10-25T03:51:36.219Z,22.05
2022-10-25T03:54:03.504Z,22.13
2022-10-25T03:56:30.776Z,24.80
2022-10-25T03:58:58.049Z,24.27
2022-10-25T04:01:25.388Z,25.00
2022-10-25T04:03:52.674Z,25.63
2022-10-25T04:06:19.957Z,25.25
2022-10-25T04:08:47.215Z,25.42
2022-10-25T04:11:14.472Z,25.05
2022-10-25T04:13:41.757Z,24.38
2022-10-25T04:16:09.574Z,23.95
2022-10-25T04:18:36.832Z,23.92
2022-10-25T04:21:04.162Z,23.55
2022-10-25T04:23:31.583Z,23.63
2022-10-25T04:25:58.927Z,23.10
2022-10-25T04:28:26.750Z,23.08
2022-10-25T04:30:54.008Z,22.73
2022-10-25T04:33:21.260Z,22.63
2022-10-25T04:35:56.350Z,22.90
2022-10-25T04:38:24.254Z,24.00
2022-10-25T04:40:58.252Z,23.75
2022-10-25T04:43:26.211Z,23.80
2022-10-25T04:45:54.005Z,23.73
2022-10-25T04:48:21.806Z,24.25
2022-10-25T04:50:49.195Z,23.55
2022-10-25T04:53:16.451Z,23.13
2022-10-25T04:55:43.801Z,23.25
2022-10-25T04:58:11.082Z,22.98
2022-10-25T05:00:38.327Z,22.55
2022-10-25T05:03:09.487Z,22.38
2022-10-25T05:05:39.679Z,20.67
2022-10-25T05:08:06.943Z,21.52
2022-10-25T05:10:34.171Z,20.42
2022-10-25T05:13:02.690Z,19.13
2022-10-25T05:15:30.385Z,19.58
2022-10-25T05:17:58.253Z,19.90
2022-10-25T05:20:25.669Z,18.35
2022-10-25T05:22:52.968Z,17.42
2022-10-25T05:25:20.233Z,16.88
2022-10-25T05:27:47.508Z,16.80
2022-10-25T05:30:14.850Z,16.83
2022-10-25T05:32:43.848Z,16.50
2022-10-25T05:35:11.239Z,17.00
2022-10-25T05:37:38.473Z,16.92
2022-10-25T05:40:06.060Z,17.27
2022-10-25T05:42:33.298Z,18.13
2022-10-25T05:45:00.551Z,16.90
2022-10-25T05:47:27.865Z,18.15
2022-10-25T05:49:55.100Z,18.38
2022-10-25T05:52:22.428Z,19.77
2022-10-25T05:54:49.686Z,19.63
2022-10-25T05:57:16.926Z,19.33
2022-10-25T05:59:44.278Z,20.00
2022-10-25T06:02:12.089Z,19.13
2022-10-25T06:04:39.472Z,17.73
2022-10-25T06:07:06.786Z,16.85
2022-10-25T06:09:34.051Z,15.73
2022-10-25T06:12:02.969Z,16.13
2022-10-25T06:14:32.137Z,16.17
2022-10-25T06:16:59.375Z,16.40
2022-10-25T06:19:26.629Z,16.70
2022-10-25T06:21:55.012Z,16.30
2022-10-25T06:24:22.227Z,15.43
2022-10-25T06:26:49.577Z,15.30
2022-10-25T06:29:16.893Z,17.20
2022-10-25T06:31:44.767Z,16.27
2022-10-25T06:34:11.973Z,17.08
2022-10-25T06:36:39.273Z,17.60
2022-10-25T06:39:07.083Z,16.60
2022-10-25T06:41:36.919Z,15.98
2022-10-25T06:44:06.415Z,15.88
2022-10-25T06:46:40.596Z,17.75
2022-10-25T06:49:19.831Z,17.52
2022-10-25T06:51:47.102Z,17.42
2022-10-25T06:54:14.322Z,17.23
2022-10-25T06:56:41.590Z,18.90
2022-10-25T06:59:08.872Z,20.00
2022-10-25T07:01:36.301Z,18.60
2022-10-25T07:04:04.205Z,18.23
2022-10-25T07:06:36.134Z,18.58
2022-10-25T07:09:05.179Z,18.00
2022-10-25T07:11:32.979Z,17.42
2022-10-25T07:14:00.744Z,17.85
2022-10-25T07:16:28.759Z,18.05
2022-10-25T07:18:59.868Z,17.77
2022-10-25T07:21:27.350Z,17.10
2022-10-25T07:23:54.979Z,16.67
2022-10-25T07:26:23.518Z,16.75
2022-10-25T07:28:52.193Z,15.75
2022-10-25T07:31:23.819Z,16.10
2022-10-25T07:33:51.919Z,15.35
2022-10-25T07:36:19.278Z,15.35
2022-10-25T07:38:46.829Z,16.23
2022-10-25T07:41:14.264Z,17.20
2022-10-25T07:43:41.532Z,16.45
2022-10-25T07:46:08.859Z,15.82
2022-10-25T07:48:36.147Z,15.63
2022-10-25T07:51:06.871Z,15.85
2022-10-25T07:53:34.218Z,16.02
2022-10-25T07:56:01.554Z,16.70
2022-10-25T07:58:28.792Z,16.33
2022-10-25T08:01:07.183Z,16.08
2022-10-25T08:03:34.715Z,16.83
2022-10-25T08:06:02.006Z,17.13
2022-10-25T08:08:30.957Z,15.60
2022-10-25T08:10:59.659Z,16.73
2022-10-25T08:13:26.985Z,16.75
2022-10-25T08:15:55.113Z,17.95
2022-10-25T08:18:22.968Z,19.17
2022-10-25T08:27:16.368Z,19.20
2022-10-25T08:29:43.714Z,21.38
2022-10-25T08:32:10.973Z,20.35
2022-10-25T08:34:38.229Z,21.20
2022-10-25T08:37:05.882Z,21.30
2022-10-25T08:39:33.218Z,20.90
2022-10-25T08:42:01.284Z,21.95
2022-10-25T08:44:40.912Z,22.23
2022-10-25T08:47:08.203Z,21.70
2022-10-25T08:49:35.526Z,22.27
2022-10-25T08:52:04.025Z,22.00
2022-10-25T08:54:36.902Z,22.08
2022-10-25T08:57:15.396Z,21.65
2022-10-25T08:59:49.556Z,24.10
2022-10-25T09:02:23.053Z,23.50
2022-10-25T09:04:50.584Z,25.15
2022-10-25T09:07:29.916Z,25.50
2022-10-25T09:10:11.537Z,25.77
2022-10-25T09:12:50.205Z,25.65
2022-10-25T09:15:29.755Z,27.52
2022-10-25T09:17:57.030Z,28.15
2022-10-25T09:20:29.250Z,30.85
2022-10-25T09:23:02.897Z,30.02
2022-10-25T09:25:48.930Z,28.92
2022-10-25T09:28:19.966Z,30.65
2022-10-25T09:30:47.281Z,30.30
2022-10-25T09:35:49.930Z,30.63
2022-10-25T09:38:21.416Z,29.85
2022-10-25T09:40:48.651Z,31.23
2022-10-25T09:43:21.514Z,32.80
2022-10-25T09:45:53.552Z,31.30
2022-10-25T09:48:28.199Z,30.33
2022-10-25T09:51:03.355Z,32.90
2022-10-25T09:53:32.127Z,30.90
2022-10-25T09:56:00.072Z,30.25
2022-10-25T09:58:32.622Z,30.17
2022-10-25T10:01:01.614Z,31.70
2022-10-25T10:03:30.390Z,31.00
2022-10-25T10:05:59.635Z,30.17
2022-10-25T10:08:27.123Z,28.02
2022-10-25T10:10:55.086Z,28.77
2022-10-25T10:13:42.781Z,28.98
2022-10-25T10:16:19.343Z,27.52
2022-10-25T10:18:46.722Z,27.20
2022-10-25T10:21:22.167Z,28.13
2022-10-25T10:23:49.700Z,28.50
2022-10-25T10:26:22.373Z,26.60
2022-10-25T10:29:07.858Z,26.45
2022-10-25T10:31:37.574Z,28.05
2022-10-25T10:34:04.909Z,28.52
2022-10-25T10:36:33.730Z,27.27
2022-10-25T10:39:27.443Z,27.13
2022-10-25T10:42:05.074Z,25.55
2022-10-25T10:44:35.044Z,28.05
2022-10-25T10:47:03.610Z,30.00
2022-10-25T10:49:36.466Z,30.45
2022-10-25T10:52:04.070Z,29.50
2022-10-25T10:54:33.716Z,30.35
2022-10-25T10:57:05.377Z,31.13
2022-10-25T10:59:40.875Z,30.40
2022-10-25T11:02:29.574Z,29.60
2022-10-25T11:04:58.064Z,29.65
2022-10-25T11:07:25.405Z,31.05
2022-10-25T11:09:52.674Z,31.10
2022-10-25T11:12:20.144Z,31.23
2022-10-25T11:14:47.363Z,32.28
2022-10-25T11:17:21.150Z,35.58
2022-10-25T11:19:51.150Z,33.17
2022-10-25T11:22:38.673Z,31.55
2022-10-25T11:25:25.600Z,32.35
2022-10-25T11:28:00.295Z,31.60
2022-10-25T11:30:35.493Z,30.80
2022-10-25T11:33:11.870Z,31.05
2022-10-25T11:35:59.344Z,30.45
2022-10-25T11:38:32.549Z,29.65
2022-10-25T11:41:20.161Z,30.70
2022-10-25T11:44:05.790Z,31.08
2022-10-25T11:47:02.482Z,30.63
2022-10-25T11:49:29.827Z,30.58
2022-10-25T11:51:59.957Z,31.63
2022-10-25T11:54:36.380Z,30.63
2022-10-25T11:57:09.605Z,32.42
2022-10-25T11:59:43.818Z,32.53
2022-10-25T12:02:19.090Z,33.28
2022-10-25T12:05:04.207Z,34.17
2022-10-25T12:07:51.300Z,31.63
2022-10-25T12:10:27.669Z,34.00
2022-10-25T12:13:01.162Z,33.33
2022-10-25T12:15:33.223Z,35.42
2022-10-25T12:18:00.613Z,34.55
2022-10-25T12:20:29.625Z,34.63
2022-10-25T12:22:58.426Z,35.17
2022-10-25T12:25:28.918Z,35.10
2022-10-25T12:28:11.299Z,35.13
2022-10-25T12:30:40.596Z,33.80
2022-10-25T12:33:08.214Z,37.05
2022-10-25T12:35:39.596Z,38.15
2022-10-25T12:38:13.772Z,36.63
2022-10-25T12:40:45.239Z,38.97
2022-10-25T12:43:15.263Z,40.90
2022-10-25T12:45:57.515Z,42.17
2022-10-25T12:48:28.603Z,42.15
2022-10-25T12:50:58.882Z,40.83
2022-10-25T12:53:32.329Z,43.67
2022-10-25T12:56:18.389Z,43.28
2022-10-25T12:58:57.260Z,44.72
2022-10-25T13:01:30.750Z,43.65
2022-10-25T13:04:04.261Z,42.40
2022-10-25T13:06:47.457Z,48.67
2022-10-25T13:09:16.205Z,45.20
2022-10-25T13:11:47.841Z,47.72
2022-10-25T13:14:33.787Z,46.65
2022-10-25T13:17:19.200Z,49.17
2022-10-25T13:19:54.480Z,47.88
2022-10-25T13:22:39.383Z,46.22
2022-10-25T13:25:06.963Z,46.40
2022-10-25T13:27:35.240Z,45.75
2022-10-25T13:30:02.680Z,44.20
2022-10-25T13:32:31.162Z,46.75
2022-10-25T13:34:59.221Z,45.15
2022-10-25T13:37:32.405Z,46.20
2022-10-25T13:40:08.073Z,46.03
2022-10-25T13:42:37.304Z,45.95
2022-10-25T13:45:04.513Z,46.00
2022-10-25T13:47:51.785Z,48.08
2022-10-25T13:50:30.529Z,49.20
2022-10-25T13:53:03.309Z,50.10
2022-10-25T13:55:34.363Z,52.70
2022-10-25T13:58:01.895Z,56.13
2022-10-25T14:00:31.233Z,55.28
2022-10-25T14:03:06.724Z,55.55
2022-10-25T14:05:52.997Z,55.70
2022-10-25T14:08:40.493Z,56.03
2022-10-25T14:11:12.179Z,53.85
2022-10-25T14:13:59.668Z,54.40
2022-10-25T14:16:29.907Z,58.60
2022-10-25T14:18:59.323Z,53.93
2022-10-25T14:21:27.002Z,53.50
2022-10-25T14:23:54.400Z,54.40
2022-10-25T14:26:21.964Z,54.80
2022-10-25T14:28:49.340Z,52.70
2022-10-25T14:31:21.321Z,52.40
2022-10-25T14:33:56.572Z,56.13
2022-10-25T14:36:28.923Z,53.05
2022-10-25T14:38:57.655Z,55.38
2022-10-25T14:41:27.901Z,54.80
2022-10-25T14:43:55.201Z,53.53
2022-10-25T14:46:23.680Z,55.45
2022-10-25T14:48:54.135Z,53.42
2022-10-25T14:51:24.456Z,53.15
2022-10-25T14:53:56.366Z,52.80
2022-10-25T14:56:26.421Z,53.55
2022-10-25T14:58:54.073Z,54.67
2022-10-25T15:01:22.499Z,55.08
2022-10-25T15:03:51.582Z,55.58
2022-10-25T15:06:20.766Z,54.92
2022-10-25T15:08:51.920Z,54.20
2022-10-25T15:11:22.240Z,53.85
2022-10-25T15:13:50.335Z,52.58
2022-10-25T15:16:35.637Z,55.50
2022-10-25T15:19:04.289Z,55.72
2022-10-25T15:21:46.824Z,51.60
2022-10-25T15:24:14.087Z,44.38
2022-10-25T15:27:00.760Z,43.65
2022-10-25T15:29:30.892Z,49.70
2022-10-25T15:31:58.403Z,49.03
2022-10-25T15:34:25.661Z,47.13
2022-10-25T15:36:53.099Z,48.63
2022-10-25T15:39:27.828Z,47.92
2022-10-25T15:41:55.292Z,51.22
2022-10-25T15:44:22.604Z,51.33
2022-10-25T15:46:50.170Z,52.30
2022-10-25T15:49:17.587Z,55.50
2022-10-25T15:51:45.451Z,54.33
2022-10-25T15:54:19.256Z,53.90
2022-10-25T15:56:46.748Z,54.80
2022-10-25T16:01:48.508Z,50.60
2022-10-25T16:04:16.986Z,50.40
2022-10-25T16:06:44.828Z,46.45
2022-10-25T16:09:12.391Z,44.55
2022-10-25T16:11:43.698Z,45.50
2022-10-25T16:14:18.844Z,44.38
2022-10-25T16:16:46.171Z,41.03
2022-10-25T16:19:14.999Z,46.10
2022-10-25T16:21:42.298Z,46.38
2022-10-25T16:24:09.775Z,49.78
2022-10-25T16:26:38.373Z,45.10
2022-10-25T16:29:06.503Z,45.40
2022-10-25T16:31:33.753Z,43.92
2022-10-25T16:34:01.132Z,42.95
2022-10-25T16:36:28.365Z,44.97
2022-10-25T16:38:55.726Z,41.50
2022-10-25T16:41:24.326Z,40.33
2022-10-25T16:43:52.045Z,37.72
2022-10-25T16:46:21.776Z,35.70
2022-10-25T16:48:49.238Z,35.95
2022-10-25T16:51:17.395Z,34.92
2022-10-25T16:53:44.740Z,37.05
2022-10-25T16:56:12.317Z,35.70
2022-10-25T16:58:40.082Z,35.22
2022-10-25T17:01:20.850Z,34.25
2022-10-25T17:03:49.898Z,38.00
2022-10-25T17:06:39.740Z,35.65
2022-10-25T17:09:04.974Z,33.33
2022-10-25T17:11:32.273Z,34.15
2022-10-25T17:13:59.529Z,36.25
2022-10-25T17:16:29.125Z,34.97
2022-10-25T17:18:57.417Z,32.25
2022-10-25T17:21:24.714Z,29.65
2022-10-25T17:23:52.019Z,28.20
2022-10-25T17:26:19.394Z,26.63
2022-10-25T17:28:46.726Z,25.52
2022-10-25T17:31:15.219Z,27.17
2022-10-25T17:33:43.089Z,26.15
2022-10-25T17:36:11.666Z,25.08
2022-10-25T17:38:39.023Z,26.15
2022-10-25T17:41:06.410Z,23.80
2022-10-25T17:43:35.719Z,22.65
2022-10-25T17:46:04.524Z,21.80
2022-10-25T17:48:32.174Z,21.45
2022-10-25T17:51:01.395Z,22.75
2022-10-25T17:53:28.754Z,21.58
2022-10-25T17:55:56.592Z,20.13
2022-10-25T17:58:23.863Z,20.38
2022-10-25T18:00:51.334Z,17.42
2022-10-25T18:03:18.629Z,17.67
2022-10-25T18:05:45.910Z,16.55
2022-10-25T18:08:13.230Z,16.80
2022-10-25T18:10:40.517Z,15.02
2022-10-25T18:13:07.757Z,14.00
2022-10-25T18:15:35.896Z,16.27
2022-10-25T18:18:03.201Z,14.57
2022-10-25T18:20:30.544Z,14.25
2022-10-25T18:22:57.968Z,13.48
2022-10-25T18:25:25.258Z,14.60
2022-10-25T18:27:52.502Z,13.80
2022-10-25T18:30:19.778Z,13.70
2022-10-25T18:32:47.060Z,14.57
2022-10-25T18:35:14.414Z,13.32
2022-10-25T18:37:42.983Z,14.07
2022-10-25T18:40:10.630Z,14.95
2022-10-25T18:42:38.314Z,14.60
2022-10-25T18:45:06.002Z,14.10
2022-10-25T18:47:33.256Z,14.98
2022-10-25T18:50:00.573Z,16.17
2022-10-25T18:52:27.823Z,15.13
2022-10-25T18:54:55.156Z,15.32
2022-10-25T18:57:22.403Z,16.13
2022-10-25T18:59:49.806Z,15.45
2022-10-25T19:02:17.140Z,13.60
2022-10-25T19:04:44.510Z,14.00
2022-10-25T19:07:11.862Z,14.75
2022-10-25T19:09:39.189Z,14.20
2022-10-25T19:12:07.844Z,13.75
2022-10-25T19:14:35.252Z,14.00
2022-10-25T19:17:02.617Z,13.57
2022-10-25T19:19:29.999Z,13.93
2022-10-25T19:21:58.580Z,13.88
2022-10-25T19:24:25.881Z,12.60
2022-10-25T19:26:53.230Z,13.02
2022-10-25T19:29:20.574Z,13.57
2022-10-25T19:31:47.857Z,14.82
2022-10-25T19:34:15.217Z,13.93
2022-10-25T19:36:42.558Z,14.63
2022-10-25T19:39:09.852Z,14.27
2022-10-25T19:41:37.214Z,15.55
2022-10-25T19:44:04.590Z,15.90
2022-10-25T19:46:31.866Z,14.90
2022-10-25T19:49:00.412Z,15.07
2022-10-25T19:51:28.676Z,15.27
2022-10-25T19:53:56.003Z,15.00
2022-10-25T19:56:23.893Z,14.05
2022-10-25T19:58:51.549Z,13.60
2022-10-25T20:01:27.450Z,15.18
2022-10-25T20:03:55.531Z,14.15
2022-10-25T20:06:25.031Z,13.27
2022-10-25T20:08:52.985Z,13.45
2022-10-25T20:11:20.548Z,13.80
2022-10-25T20:13:50.054Z,12.50
2022-10-25T20:16:17.308Z,12.85
2022-10-25T20:18:47.027Z,12.02
2022-10-25T20:21:16.260Z,12.18
2022-10-25T20:23:49.188Z,12.50
2022-10-25T20:26:16.461Z,11.15
2022-10-25T20:28:43.824Z,11.50
2022-10-25T20:31:11.571Z,11.43
2022-10-25T20:33:39.392Z,11.60
2022-10-25T20:36:10.372Z,11.70
2022-10-25T20:38:37.903Z,11.57
2022-10-25T20:41:13.097Z,11.27
2022-10-25T20:43:40.789Z,11.30
2022-10-25T20:46:08.741Z,10.65
2022-10-25T20:48:36.121Z,10.90
2022-10-25T20:51:06.891Z,10.40
2022-10-25T20:53:35.761Z,10.45
2022-10-25T20:56:03.141Z,10.75
2022-10-25T20:58:30.438Z,9.88
2022-10-25T21:00:57.892Z,10.95
2022-10-25T21:03:26.139Z,11.32
2022-10-25T21:05:57.294Z,9.80
2022-10-25T21:10:55.776Z,10.88
2022-10-25T21:13:23.757Z,11.90
2022-10-25T21:15:51.124Z,11.65
2022-10-25T21:18:18.489Z,10.82
2022-10-25T21:20:46.226Z,10.98
2022-10-25T21:23:13.689Z,11.18
2022-10-25T21:25:40.974Z,11.25
2022-10-25T21:28:08.210Z,11.57
2022-10-25T21:30:35.498Z,11.15
2022-10-25T21:33:03.782Z,11.48
2022-10-25T21:35:31.468Z,11.85
2022-10-25T21:37:59.091Z,12.85
2022-10-25T21:40:26.640Z,20.38
2022-10-25T21:42:53.909Z,12.43
2022-10-25T21:45:21.161Z,12.23
2022-10-25T21:47:48.641Z,12.70
2022-10-25T21:50:17.376Z,13.40
2022-10-25T21:52:44.695Z,12.70
2022-10-25T21:55:11.928Z,13.23
2022-10-25T21:57:39.279Z,11.70
2022-10-25T22:00:06.897Z,12.55
2022-10-25T22:02:34.310Z,11.57
2022-10-25T22:05:01.822Z,12.13
2022-10-25T22:07:29.266Z,11.07
2022-10-25T22:09:56.547Z,11.90
2022-10-25T22:12:23.818Z,11.23
2022-10-25T22:14:51.059Z,12.13
2022-10-25T22:17:18.461Z,11.82
2022-10-25T22:19:45.713Z,10.75
2022-10-25T22:22:12.975Z,10.82
2022-10-25T22:24:40.220Z,10.77
2022-10-25T22:27:07.480Z,11.13
2022-10-25T22:29:34.727Z,9.93
2022-10-25T22:32:01.965Z,10.38
2022-10-25T22:34:29.334Z,10.38
2022-10-25T22:36:56.745Z,10.38
2022-10-25T22:39:23.952Z,11.18
2022-10-25T22:41:53.133Z,11.38
2022-10-25T22:46:53.509Z,12.00
2022-10-25T22:49:21.787Z,12.07
2022-10-25T22:51:49.031Z,11.88
2022-10-25T22:54:16.327Z,11.77
2022-10-25T22:56:43.598Z,11.57
2022-10-25T22:59:11.530Z,10.70
2022-10-25T23:01:38.894Z,9.60
2022-10-25T23:04:07.940Z,11.15
2022-10-25T23:06:39.868Z,10.13
2022-10-25T23:09:09.225Z,10.65
2022-10-25T23:11:37.812Z,10.80
2022-10-25T23:14:05.685Z,9.43
2022-10-25T23:16:32.997Z,10.05
2022-10-25T23:19:00.305Z,10.02
2022-10-25T23:21:31.043Z,9.98
2022-10-25T23:23:59.571Z,9.23
2022-10-25T23:26:28.334Z,9.95
2022-10-25T23:28:56.168Z,9.40
2022-10-25T23:31:23.692Z,9.65
2022-10-25T23:33:54.222Z,9.50
2022-10-25T23:36:22.452Z,9.00
2022-10-25T23:38:50.593Z,9.40
2022-10-25T23:41:18.573Z,8.98
2022-10-25T23:43:45.834Z,9.45
2022-10-25T23:46:13.249Z,9.13
2022-10-25T23:48:41.249Z,9.30
2022-10-25T23:51:09.773Z,9.68
2022-10-25T23:53:37.242Z,8.48
2022-10-25T23:56:05.363Z,9.57
2022-10-25T23:58:32.652Z,9.25
